Time;durP1;ratioP1;P1;durP2;ratioP2;P2;SDS_P1;SDS_P2;PMS_P1;PMS_P2;Temp;Humidity;BMP_temperature;BMP_pressure;BME280_temperature;BME280_humidity;BME280_pressure;Samples;Min_cycle;Max_cycle;Signal;HPM_P1;HPM_P2
2023/11/04 00:07:52;;;;;;;18.00;4.95;;;;;;;21.91;100.00;100766.88;21190453;27;20043;-77
2023/11/04 00:18:16;;;;;;;17.25;3.20;;;;;;;22.01;100.00;100743.28;21207271;27;20058;-77
2023/11/04 00:28:39;;;;;;;16.40;4.80;;;;;;;22.26;100.00;100726.28;21207795;27;20043;-77
2023/11/04 00:39:04;;;;;;;15.85;3.10;;;;;;;22.45;100.00;100723.88;21188970;27;20043;-79
2023/11/04 00:49:27;;;;;;;13.38;2.88;;;;;;;22.70;98.40;100723.94;21182031;27;20547;-79
2023/11/04 00:59:51;;;;;;;24.27;3.55;;;;;;;22.92;86.56;100710.59;21203347;27;20123;-79
2023/11/04 01:10:14;;;;;;;18.77;3.85;;;;;;;22.98;76.35;100702.28;21215446;27;20051;-78
2023/11/04 01:20:38;;;;;;;12.85;2.20;;;;;;;23.04;59.65;100694.88;21201413;28;20043;-79
2023/11/04 01:31:00;;;;;;;14.27;2.65;;;;;;;23.22;52.13;100689.75;21184838;28;20043;-78
2023/11/04 01:41:25;;;;;;;16.05;2.47;;;;;;;23.26;48.52;100678.78;21166888;28;20048;-78
2023/11/04 01:51:48;;;;;;;19.20;3.55;;;;;;;23.52;45.25;100677.81;21188843;27;20138;-78
2023/11/04 02:02:13;;;;;;;10.45;2.80;;;;;;;23.66;44.04;100691.66;21196620;28;20058;-77
2023/11/04 02:12:36;;;;;;;14.73;3.13;;;;;;;23.87;45.08;100680.94;21198498;27;20495;-80
2023/11/04 02:23:01;;;;;;;16.25;3.03;;;;;;;23.87;48.29;100672.84;21211108;27;20480;-77
2023/11/04 02:33:24;;;;;;;19.27;3.40;;;;;;;23.70;50.92;100687.00;21186250;27;20043;-79
2023/11/04 02:43:48;;;;;;;13.55;3.58;;;;;;;23.64;82.93;100685.41;21200951;27;20058;-79
2023/11/04 02:54:10;;;;;;;14.57;3.30;;;;;;;23.33;100.00;100685.72;21202918;27;20043;-78
2023/11/04 03:04:35;;;;;;;16.13;4.10;;;;;;;23.08;100.00;100695.66;21197816;27;20391;-78
2023/11/04 03:14:57;;;;;;;17.85;3.67;;;;;;;22.90;100.00;100697.22;21205550;27;20039;-78
2023/11/04 03:25:22;;;;;;;13.23;3.50;;;;;;;22.84;100.00;100693.88;21190928;27;20050;-78
2023/11/04 03:35:45;;;;;;;14.88;2.80;;;;;;;22.80;100.00;100701.16;21192670;27;20100;-78
2023/11/04 03:46:09;;;;;;;15.35;2.58;;;;;;;22.93;83.78;100689.00;21205398;27;20104;-78
2023/11/04 03:56:32;;;;;;;7.63;1.85;;;;;;;23.14;62.03;100697.22;21208489;27;20492;-78
2023/11/04 04:06:56;;;;;;;12.63;2.88;;;;;;;23.36;53.17;100687.41;21198457;27;20402;-78
2023/11/04 04:17:19;;;;;;;10.00;2.20;;;;;;;23.41;52.93;100690.81;21188724;27;20088;-78
2023/11/04 04:27:43;;;;;;;12.32;2.25;;;;;;;23.47;47.39;100701.38;21204950;27;20047;-77
2023/11/04 04:38:06;;;;;;;19.02;2.05;;;;;;;23.54;46.77;100700.22;21194087;27;20062;-78
2023/11/04 04:48:30;;;;;;;8.93;1.92;;;;;;;23.60;46.20;100697.28;21208789;27;20058;-77
2023/11/04 04:58:52;;;;;;;12.63;2.92;;;;;;;23.70;44.02;100708.56;21214399;27;20390;-78
2023/11/04 05:09:17;;;;;;;15.55;3.28;;;;;;;23.87;41.96;100705.22;21181112;28;20170;-78
2023/11/04 05:19:40;;;;;;;17.13;2.28;;;;;;;23.99;41.66;100711.00;21196426;28;20043;-76
2023/11/04 05:30:05;;;;;;;10.60;1.98;;;;;;;24.24;40.52;100724.38;21187283;28;20411;-78
2023/11/04 05:40:28;;;;;;;17.17;2.08;;;;;;;24.53;40.02;100745.66;21210373;28;20075;-78
2023/11/04 05:50:52;;;;;;;13.45;2.35;;;;;;;24.94;38.60;100751.13;21168757;27;20129;-78
2023/11/04 06:01:15;;;;;;;12.50;2.55;;;;;;;25.32;38.41;100762.94;21198125;27;20087;-78
2023/11/04 06:11:40;;;;;;;9.30;2.28;;;;;;;25.64;39.02;100759.66;21198826;27;20134;-76
2023/11/04 06:22:03;;;;;;;11.95;2.45;;;;;;;25.94;39.41;100776.25;21222583;27;20050;-77
2023/11/04 06:32:28;;;;;;;12.60;2.70;;;;;;;26.31;38.34;100774.53;21204546;27;20077;-77
2023/11/04 06:42:50;;;;;;;10.70;2.10;;;;;;;26.69;36.72;100783.44;21180323;27;20047;-77
2023/11/04 06:53:15;;;;;;;13.20;2.45;;;;;;;27.14;35.01;100785.63;21212920;27;20043;-78
2023/11/04 07:03:37;;;;;;;11.55;2.67;;;;;;;27.58;34.05;100786.88;21204668;27;20108;-78
2023/11/04 07:14:01;;;;;;;16.00;2.70;;;;;;;27.95;33.14;100798.44;21207177;27;20047;-77
2023/11/04 07:24:24;;;;;;;9.90;1.95;;;;;;;28.36;32.79;100802.41;21205282;27;20043;-77
2023/11/04 07:34:48;;;;;;;9.70;2.13;;;;;;;28.78;31.64;100800.91;21183381;27;20053;-77
2023/11/04 07:45:12;;;;;;;15.32;2.22;;;;;;;29.15;30.91;100786.81;21186738;27;20965;-77
2023/11/04 07:55:37;;;;;;;9.23;1.88;;;;;;;29.63;29.70;100792.97;21217175;27;20675;-78
2023/11/04 08:06:00;;;;;;;15.33;2.00;;;;;;;30.02;28.94;100790.44;21215245;27;20406;-77
2023/11/04 08:16:24;;;;;;;15.07;3.08;;;;;;;30.46;28.00;100770.28;21205464;27;20050;-78
2023/11/04 08:26:47;;;;;;;16.40;2.83;;;;;;;30.78;27.05;100760.88;21227023;27;20085;-78
2023/11/04 08:37:12;;;;;;;16.90;2.22;;;;;;;31.11;27.94;100763.16;21169970;27;20661;-77
2023/11/04 08:47:34;;;;;;;12.30;2.50;;;;;;;31.27;28.02;100752.88;21189720;27;20055;-78
2023/11/04 08:57:59;;;;;;;13.90;3.08;;;;;;;31.43;29.50;100739.03;21211386;27;20340;-78
2023/11/04 09:08:22;;;;;;;12.87;3.53;;;;;;;31.51;30.20;100733.00;21191488;27;20043;-78
2023/11/04 09:18:46;;;;;;;13.52;2.65;;;;;;;31.62;31.34;100714.03;21205665;28;20049;-79
2023/11/04 09:29:09;;;;;;;16.80;2.45;;;;;;;31.83;30.91;100708.88;21217438;27;20580;-78
2023/11/04 09:39:33;;;;;;;9.60;2.28;;;;;;;32.11;31.84;100702.19;21212673;27;20084;-79
2023/11/04 09:49:56;;;;;;;21.87;3.37;;;;;;;32.18;32.15;100688.00;21223632;27;20461;-78
2023/11/04 10:00:23;;;;;;;13.25;2.78;;;;;;;32.17;34.81;100668.97;21206730;27;20039;-78
2023/11/04 10:10:46;;;;;;;14.45;2.25;;;;;;;32.06;35.11;100664.31;21227008;27;20629;-78
2023/11/04 10:21:10;;;;;;;18.75;2.90;;;;;;;32.16;33.66;100654.47;21221476;27;20134;-78
2023/11/04 10:31:33;;;;;;;13.77;2.95;;;;;;;32.17;32.58;100648.00;21184309;27;20116;-78
2023/11/04 10:42:03;;;;;;;12.20;2.55;;;;;;;32.02;35.96;100657.34;21208985;27;20123;-78
2023/11/04 10:52:29;;;;;;;10.90;2.22;;;;;;;31.90;33.03;100669.19;21268417;27;20051;-78
2023/11/04 11:02:54;;;;;;;15.00;2.77;;;;;;;31.75;33.17;100635.69;21203804;27;20070;-78
2023/11/04 11:13:20;;;;;;;11.20;2.03;;;;;;;31.58;31.50;100628.69;21203574;27;20127;-77
2023/11/04 11:23:47;;;;;;;18.00;2.80;;;;;;;31.53;30.62;100620.00;21211168;27;20515;-78
2023/11/04 11:34:09;;;;;;;13.63;1.90;;;;;;;31.31;30.78;100605.31;21226507;27;20116;-76
2023/11/04 11:44:34;;;;;;;12.27;2.33;;;;;;;31.15;31.49;100586.47;21202029;27;20060;-78
2023/11/04 11:54:58;;;;;;;15.35;2.67;;;;;;;31.10;31.34;100597.72;21193446;27;20450;-78
2023/11/04 12:05:23;;;;;;;14.30;2.30;;;;;;;31.00;31.92;100603.88;21217132;27;20499;-77
2023/11/04 12:15:46;;;;;;;11.40;2.30;;;;;;;30.80;33.34;100591.69;21221016;27;20042;-77
2023/11/04 12:26:10;;;;;;;13.60;2.65;;;;;;;30.63;34.81;100601.06;21180355;27;20043;-77
2023/11/04 12:36:35;;;;;;;11.87;2.80;;;;;;;30.48;35.68;100613.00;21202081;27;20556;-78
2023/11/04 12:46:59;;;;;;;16.35;3.20;;;;;;;30.19;37.87;100595.09;21237645;27;20043;-77
2023/11/04 12:57:22;;;;;;;11.45;2.67;;;;;;;29.52;40.69;100605.88;21210252;27;20128;-78
2023/11/04 13:07:46;;;;;;;14.25;2.65;;;;;;;29.14;42.54;100593.88;21249235;27;20051;-78
2023/11/04 13:18:08;;;;;;;13.30;2.53;;;;;;;28.91;44.74;100598.91;21207271;27;20047;-77
2023/11/04 13:28:32;;;;;;;11.40;2.53;;;;;;;28.81;46.55;100607.75;21192056;27;20059;-77
2023/11/04 13:38:56;;;;;;;20.02;3.33;;;;;;;28.70;46.92;100583.91;21207400;27;20499;-77
2023/11/04 13:49:20;;;;;;;14.75;2.60;;;;;;;28.56;47.55;100608.34;21217219;27;20846;-76
2023/11/04 13:59:42;;;;;;;17.67;3.17;;;;;;;28.39;47.98;100603.94;21170110;28;20058;-77
2023/11/04 14:10:09;;;;;;;16.27;3.63;;;;;;;28.24;48.88;100604.88;21161334;27;20055;-77
2023/11/04 14:20:34;;;;;;;17.60;3.30;;;;;;;28.10;50.57;100594.78;21163785;27;20146;-78
2023/11/04 14:30:58;;;;;;;12.93;3.40;;;;;;;27.94;51.37;100576.81;21190372;27;20075;-77
2023/11/04 14:41:20;;;;;;;16.08;3.15;;;;;;;27.79;53.61;100581.28;21206759;27;20492;-77
2023/11/04 14:51:44;;;;;;;13.50;2.55;;;;;;;27.62;56.85;100595.84;21221015;27;20055;-77
2023/11/04 15:02:07;;;;;;;12.40;2.92;;;;;;;27.48;65.40;100612.00;21219902;27;20070;-77
2023/11/04 15:12:33;;;;;;;13.18;2.90;;;;;;;27.30;75.45;100623.91;21215532;27;20105;-77
2023/11/04 15:22:55;;;;;;;16.08;4.03;;;;;;;27.10;85.33;100634.97;21226516;27;20070;-77
2023/11/04 15:33:20;;;;;;;20.65;4.25;;;;;;;26.95;91.87;100633.97;21211914;27;20057;-77
2023/11/04 15:43:43;;;;;;;20.55;4.47;;;;;;;26.80;100.00;100641.03;21197317;27;20059;-77
2023/11/04 15:54:07;;;;;;;19.88;4.63;;;;;;;26.69;100.00;100653.41;21199700;27;20051;-77
2023/11/04 16:04:30;;;;;;;26.73;3.90;;;;;;;26.55;100.00;100656.84;21198963;27;20219;-76
2023/11/04 16:14:54;;;;;;;21.13;3.58;;;;;;;26.42;100.00;100644.88;21212243;27;20129;-77
2023/11/04 16:25:17;;;;;;;20.50;4.40;;;;;;;26.28;100.00;100653.72;21220248;27;20502;-76
2023/11/04 16:35:42;;;;;;;27.85;4.40;;;;;;;26.16;100.00;100666.00;21200377;27;20045;-77
2023/11/04 16:46:06;;;;;;;15.57;4.07;;;;;;;26.03;100.00;100670.28;21194178;27;20410;-77
2023/11/04 16:56:30;;;;;;;21.10;4.20;;;;;;;25.90;100.00;100658.31;21216077;27;20043;-74
2023/11/04 17:06:53;;;;;;;21.35;4.13;;;;;;;25.84;100.00;100655.91;21167785;27;20039;-78
2023/11/04 17:17:18;;;;;;;15.30;4.15;;;;;;;25.85;100.00;100646.84;21190322;28;20043;-76
2023/11/04 17:27:40;;;;;;;19.73;4.45;;;;;;;25.89;100.00;100655.69;21181605;27;20038;-77
2023/11/04 17:38:04;;;;;;;20.98;5.10;;;;;;;25.75;100.00;100637.41;21183414;27;20047;-77
2023/11/04 17:48:30;;;;;;;20.90;5.50;;;;;;;25.60;100.00;100632.78;21190386;27;20088;-76
2023/11/04 17:58:55;;;;;;;21.95;4.85;;;;;;;25.53;100.00;100634.00;21200849;27;20058;-77
2023/11/04 18:09:18;;;;;;;18.58;4.35;;;;;;;25.51;100.00;100660.22;21184750;27;20043;-78
2023/11/04 18:19:43;;;;;;;21.40;4.43;;;;;;;25.49;100.00;100662.09;21225555;27;20080;-75
2023/11/04 18:30:07;;;;;;;22.88;5.60;;;;;;;25.37;100.00;100675.25;21214729;27;20104;-79
2023/11/04 18:40:31;;;;;;;19.42;4.38;;;;;;;25.26;100.00;100676.72;21208375;27;20043;-77
2023/11/04 18:50:54;;;;;;;24.88;5.10;;;;;;;25.10;100.00;100683.75;21213100;27;20047;-77
2023/11/04 19:01:23;;;;;;;24.52;5.43;;;;;;;24.91;100.00;100668.41;21237753;27;20047;-76
2023/11/04 19:11:46;;;;;;;21.13;5.20;;;;;;;24.75;100.00;100669.09;21200126;27;20574;-76
2023/11/04 19:22:10;;;;;;;29.65;5.93;;;;;;;24.69;100.00;100688.28;21211621;27;20039;-75
2023/11/04 19:32:33;;;;;;;31.55;6.30;;;;;;;24.53;100.00;100691.66;21287326;27;20494;-78
2023/11/04 19:42:57;;;;;;;25.35;5.63;;;;;;;24.50;100.00;100674.69;21231820;27;20050;-77
2023/11/04 19:53:20;;;;;;;35.50;7.07;;;;;;;24.68;100.00;100689.25;21232822;27;20047;-77
2023/11/04 20:03:44;;;;;;;28.15;6.05;;;;;;;24.64;100.00;100726.28;21190383;27;20043;-75
2023/11/04 20:14:07;;;;;;;23.33;5.95;;;;;;;24.52;100.00;100708.78;21197580;27;20062;-76
2023/11/04 20:24:31;;;;;;;24.88;6.13;;;;;;;24.38;100.00;100730.09;21185018;27;20118;-77
2023/11/04 20:34:53;;;;;;;23.90;5.65;;;;;;;24.27;100.00;100748.56;21211175;27;20054;-78
2023/11/04 20:45:19;;;;;;;29.98;5.43;;;;;;;24.24;100.00;100743.28;21160374;27;20579;-77
2023/11/04 20:55:42;;;;;;;22.27;4.82;;;;;;;24.21;100.00;100722.72;21275812;27;20793;-77
2023/11/04 21:06:08;;;;;;;29.10;5.07;;;;;;;24.25;100.00;100744.16;21168200;27;20274;-76
2023/11/04 21:16:30;;;;;;;24.23;4.53;;;;;;;24.25;100.00;100739.63;21206571;28;20051;-74
2023/11/04 21:26:54;;;;;;;26.45;4.72;;;;;;;24.26;100.00;100756.72;21218822;27;20047;-75
2023/11/04 21:37:17;;;;;;;24.27;5.07;;;;;;;24.26;100.00;100762.97;21190965;27;20044;-76
2023/11/04 21:47:41;;;;;;;24.17;4.97;;;;;;;24.32;100.00;100768.13;21206634;27;20062;-77
2023/11/04 21:58:04;;;;;;;19.63;5.10;;;;;;;24.39;100.00;100787.66;21218520;27;20452;-77
2023/11/04 22:08:28;;;;;;;29.00;5.68;;;;;;;24.39;100.00;100783.13;21206672;27;20059;-74
2023/11/04 22:18:51;;;;;;;26.73;4.82;;;;;;;24.35;100.00;100772.53;21230747;27;20051;-74
2023/11/04 22:29:16;;;;;;;28.10;5.90;;;;;;;24.38;100.00;100767.88;21211600;27;20047;-75
2023/11/04 22:39:38;;;;;;;27.48;4.55;;;;;;;24.38;100.00;100761.59;21208243;27;20058;-75
2023/11/04 22:50:02;;;;;;;26.70;6.00;;;;;;;24.28;100.00;100758.41;21219924;27;20047;-76
2023/11/04 23:00:34;;;;;;;26.08;5.05;;;;;;;24.38;100.00;100778.66;21191038;27;20834;-77
2023/11/04 23:10:59;;;;;;;23.40;5.88;;;;;;;24.42;100.00;100779.41;21193140;27;20055;-77
2023/11/04 23:21:22;;;;;;;35.63;5.72;;;;;;;24.33;100.00;100801.41;21212853;27;20104;-77
2023/11/04 23:31:46;;;;;;;51.03;7.50;;;;;;;24.29;100.00;100803.31;21208520;27;20394;-76
2023/11/04 23:42:09;;;;;;;68.50;9.93;;;;;;;24.20;100.00;100806.41;21188803;27;20039;-76
2023/11/04 23:52:33;;;;;;;73.43;9.82;;;;;;;24.07;100.00;100822.16;21202007;27;20046;-77
